createdAt,value
2017-12-15T00:01:42.335Z,94949.02
2017-12-15T00:04:09.867Z,94952.69
2017-12-15T00:06:37.451Z,94958.97
2017-12-15T00:09:05.350Z,94954.23
2017-12-15T00:11:33.693Z,94957.06
2017-12-15T00:14:01.267Z,94960.22
2017-12-15T00:16:28.860Z,94955.56
2017-12-15T00:18:56.399Z,94929.56
2017-12-15T00:21:24.266Z,94954.54
2017-12-15T00:23:51.828Z,94952.89
2017-12-15T00:26:19.611Z,94953.97
2017-12-15T00:28:47.468Z,94965.30
2017-12-15T00:31:15.158Z,94952.09
2017-12-15T00:33:42.715Z,94956.66
2017-12-15T00:36:10.283Z,94959.39
2017-12-15T00:38:37.875Z,94960.62
2017-12-15T00:41:05.421Z,94950.58
2017-12-15T00:43:33.005Z,94939.75
2017-12-15T00:46:00.654Z,94950.64
2017-12-15T00:48:28.196Z,94954.31
2017-12-15T00:50:55.730Z,94951.45
2017-12-15T00:53:23.363Z,94949.45
2017-12-15T00:55:51.149Z,94961.72
2017-12-15T00:58:18.947Z,94959.35
2017-12-15T01:00:46.563Z,94950.41
2017-12-15T01:03:14.101Z,94953.73
2017-12-15T01:05:41.643Z,94962.86
2017-12-15T01:08:09.241Z,94944.88
2017-12-15T01:10:36.788Z,94959.53
2017-12-15T01:13:04.318Z,94960.09
2017-12-15T01:15:31.889Z,94965.42
2017-12-15T01:17:59.498Z,94959.78
2017-12-15T01:20:27.091Z,94956.06
2017-12-15T01:22:54.699Z,94966.67
2017-12-15T01:25:22.259Z,94985.84
2017-12-15T01:27:49.841Z,94978.73
2017-12-15T01:30:17.416Z,94970.30
2017-12-15T01:32:44.960Z,94978.82
2017-12-15T01:35:12.498Z,94974.88
2017-12-15T01:37:40.292Z,94984.33
2017-12-15T01:40:07.840Z,94982.38
2017-12-15T01:42:35.413Z,94973.95
2017-12-15T01:45:03.038Z,94962.89
2017-12-15T01:47:30.824Z,94970.54
2017-12-15T01:49:58.361Z,94970.84
2017-12-15T01:52:25.919Z,94958.81
2017-12-15T01:54:53.435Z,94950.86
2017-12-15T01:57:21.034Z,94942.05
2017-12-15T01:59:48.670Z,94940.67
2017-12-15T02:02:16.244Z,94934.98
2017-12-15T02:04:43.811Z,94954.59
2017-12-15T02:07:11.560Z,94960.34
2017-12-15T02:09:39.157Z,94959.73
2017-12-15T02:12:06.751Z,94966.27
2017-12-15T02:14:34.610Z,94970.05
2017-12-15T02:17:02.181Z,94956.89
2017-12-15T02:19:29.732Z,94958.23
2017-12-15T02:21:57.352Z,94957.33
2017-12-15T02:24:25.008Z,94948.19
2017-12-15T02:26:52.574Z,94952.84
2017-12-15T02:29:20.338Z,94959.98
2017-12-15T02:31:47.890Z,94966.55
2017-12-15T02:34:15.783Z,94967.69
2017-12-15T02:36:43.334Z,94958.17
2017-12-15T02:39:10.906Z,94954.09
2017-12-15T02:41:38.433Z,94958.31
2017-12-15T02:44:05.958Z,94952.41
2017-12-15T02:46:33.550Z,94958.64
2017-12-15T02:49:01.084Z,94968.58
2017-12-15T02:51:28.613Z,94962.98
2017-12-15T02:53:56.175Z,94968.66
2017-12-15T02:56:23.783Z,94975.98
2017-12-15T02:58:51.383Z,94975.45
2017-12-15T03:01:18.908Z,94972.73
2017-12-15T03:03:46.507Z,94963.63
2017-12-15T03:06:14.042Z,94964.15
2017-12-15T03:08:41.677Z,94974.34
2017-12-15T03:11:09.255Z,94974.56
2017-12-15T03:13:37.016Z,94967.70
2017-12-15T03:16:04.601Z,94965.67
2017-12-15T03:18:32.145Z,94981.34
2017-12-15T03:20:59.715Z,94974.31
2017-12-15T03:23:27.254Z,94973.80
2017-12-15T03:25:54.805Z,94972.28
2017-12-15T03:28:22.372Z,94979.00
2017-12-15T03:30:49.963Z,94976.70
2017-12-15T03:33:17.536Z,94964.63
2017-12-15T03:35:45.084Z,94974.48
2017-12-15T03:38:12.674Z,94988.67
2017-12-15T03:40:40.443Z,94970.31
2017-12-15T03:43:07.988Z,94970.88
2017-12-15T03:45:35.607Z,94972.27
2017-12-15T03:48:03.132Z,94984.64
2017-12-15T03:50:30.670Z,94972.04
2017-12-15T03:52:58.235Z,94984.27
2017-12-15T03:55:25.785Z,94980.09
2017-12-15T03:57:53.320Z,94986.07
2017-12-15T04:00:20.931Z,94979.68
2017-12-15T04:02:48.510Z,94982.98
2017-12-15T04:05:16.122Z,94987.24
2017-12-15T04:07:43.701Z,94989.55
2017-12-15T04:10:11.245Z,94988.19
2017-12-15T04:12:38.798Z,94976.92
2017-12-15T04:15:06.359Z,94985.03
2017-12-15T04:17:34.119Z,94987.79
2017-12-15T04:20:01.734Z,94990.10
2017-12-15T04:22:29.345Z,94989.28
2017-12-15T04:24:56.886Z,94996.73
2017-12-15T04:27:24.495Z,95006.80
2017-12-15T04:29:52.275Z,95004.63
2017-12-15T04:32:19.918Z,95007.11
2017-12-15T04:34:47.692Z,95001.96
2017-12-15T04:37:15.264Z,95014.50
2017-12-15T04:39:42.902Z,95004.94
2017-12-15T04:42:10.456Z,95005.62
2017-12-15T04:44:38.020Z,95009.86
2017-12-15T04:47:05.852Z,95008.73
2017-12-15T04:49:33.712Z,95018.05
2017-12-15T04:52:01.484Z,95018.75
2017-12-15T04:54:29.108Z,95013.17
2017-12-15T04:56:56.909Z,95019.52
2017-12-15T04:59:24.686Z,95007.80
2017-12-15T05:01:52.313Z,95008.69
2017-12-15T05:04:20.238Z,95002.06
2017-12-15T05:06:47.814Z,95000.38
2017-12-15T05:09:15.413Z,95023.55
2017-12-15T05:11:43.252Z,95017.33
2017-12-15T05:14:11.450Z,95030.44
2017-12-15T05:16:39.179Z,95026.20
2017-12-15T05:19:06.775Z,95039.56
2017-12-15T05:21:35.194Z,95043.72
2017-12-15T05:24:02.856Z,95044.89
2017-12-15T05:26:31.268Z,95055.01
2017-12-15T05:28:59.673Z,95042.94
2017-12-15T05:31:27.273Z,95036.05
2017-12-15T05:33:55.058Z,95049.45
2017-12-15T05:36:23.476Z,95029.89
2017-12-15T05:38:51.101Z,95028.77
2017-12-15T05:41:18.633Z,95036.50
2017-12-15T05:43:46.181Z,95025.16
2017-12-15T05:46:13.823Z,94994.09
2017-12-15T05:48:41.584Z,95027.97
2017-12-15T05:51:09.350Z,95021.28
2017-12-15T05:53:36.906Z,95016.07
2017-12-15T05:56:04.753Z,95019.16
2017-12-15T05:58:32.549Z,95009.69
2017-12-15T06:01:00.920Z,95009.80
2017-12-15T06:03:28.468Z,95015.87
2017-12-15T06:05:56.272Z,95022.75
2017-12-15T06:08:23.940Z,95019.47
2017-12-15T06:10:51.695Z,95012.80
2017-12-15T06:13:19.342Z,95015.41
2017-12-15T06:15:46.921Z,95025.03
2017-12-15T06:18:15.799Z,95029.20
2017-12-15T06:20:43.628Z,95027.23
2017-12-15T06:23:11.241Z,95038.03
2017-12-15T06:25:38.783Z,95027.78
2017-12-15T06:28:06.374Z,95033.54
2017-12-15T06:30:33.963Z,95042.20
2017-12-15T06:33:01.554Z,95044.34
2017-12-15T06:35:29.139Z,95034.31
2017-12-15T06:37:56.763Z,95036.69
2017-12-15T06:40:24.389Z,95037.39
2017-12-15T06:42:52.007Z,95032.75
2017-12-15T06:45:19.664Z,95027.54
2017-12-15T06:47:47.207Z,95039.80
2017-12-15T06:50:14.806Z,95043.55
2017-12-15T06:52:42.453Z,95053.22
2017-12-15T06:55:10.043Z,95049.25
2017-12-15T06:57:37.858Z,95042.23
2017-12-15T07:00:06.026Z,95047.56
2017-12-15T07:02:33.841Z,95050.59
2017-12-15T07:05:01.481Z,95049.41
2017-12-15T07:07:29.103Z,95043.10
2017-12-15T07:09:56.874Z,95030.61
2017-12-15T07:12:24.510Z,95043.96
2017-12-15T07:14:52.344Z,95035.72
2017-12-15T07:17:19.959Z,95029.24
2017-12-15T07:19:47.733Z,95043.92
2017-12-15T07:22:15.329Z,95035.52
2017-12-15T07:24:42.872Z,95036.45
2017-12-15T07:27:11.315Z,95037.17
2017-12-15T07:29:38.898Z,95040.39
2017-12-15T07:32:07.111Z,95044.23
2017-12-15T07:34:34.885Z,95039.63
2017-12-15T07:37:02.475Z,95031.70
2017-12-15T07:39:30.117Z,95014.36
2017-12-15T07:41:57.933Z,95013.72
2017-12-15T07:44:25.552Z,95018.39
2017-12-15T07:46:53.342Z,95017.20
2017-12-15T07:49:20.964Z,95017.76
2017-12-15T07:51:48.740Z,95032.97
2017-12-15T07:54:16.372Z,95019.02
2017-12-15T07:56:44.591Z,95029.81
2017-12-15T07:59:12.161Z,95036.88
2017-12-15T08:01:39.740Z,95038.22
2017-12-15T08:04:07.519Z,95044.83
2017-12-15T08:06:35.307Z,95056.06
2017-12-15T08:09:02.875Z,95040.20
2017-12-15T08:11:30.501Z,95045.72
2017-12-15T08:13:58.319Z,95060.71
2017-12-15T08:16:25.910Z,95056.39
2017-12-15T08:18:53.525Z,95059.55
2017-12-15T08:21:21.175Z,95060.01
2017-12-15T08:23:48.751Z,95049.74
2017-12-15T08:26:16.324Z,95046.42
2017-12-15T08:28:43.976Z,95040.70
2017-12-15T08:31:11.571Z,95032.63
2017-12-15T08:33:39.163Z,95043.71
2017-12-15T08:36:06.932Z,95048.39
2017-12-15T08:38:34.636Z,95036.21
2017-12-15T08:41:02.196Z,95030.97
2017-12-15T08:43:30.005Z,95041.95
2017-12-15T08:45:57.610Z,95044.52
2017-12-15T08:48:26.164Z,95055.12
2017-12-15T08:50:53.920Z,95062.20
2017-12-15T08:53:21.512Z,95058.35
2017-12-15T08:55:49.147Z,95046.68
2017-12-15T08:58:17.623Z,95028.86
2017-12-15T09:00:45.240Z,95033.80
2017-12-15T09:03:12.930Z,95030.72
2017-12-15T09:05:40.543Z,95029.06
2017-12-15T09:08:08.174Z,95026.33
2017-12-15T09:10:35.936Z,95022.14
2017-12-15T09:13:03.535Z,95012.00
2017-12-15T09:15:31.453Z,95003.91
2017-12-15T09:17:59.237Z,95003.84
2017-12-15T09:20:26.804Z,94999.36
2017-12-15T09:22:54.892Z,94993.73
2017-12-15T09:25:22.529Z,94989.45
2017-12-15T09:27:50.288Z,94990.05
2017-12-15T09:30:17.889Z,94994.25
2017-12-15T09:32:45.675Z,94981.78
2017-12-15T09:35:13.203Z,94980.23
2017-12-15T09:37:40.895Z,94982.58
2017-12-15T09:40:08.704Z,94978.10
2017-12-15T09:42:36.292Z,94977.55
2017-12-15T09:45:03.899Z,94966.30
2017-12-15T09:47:31.464Z,94966.11
2017-12-15T09:49:59.032Z,94967.44
2017-12-15T09:52:26.806Z,94960.88
2017-12-15T09:54:54.594Z,94960.39
2017-12-15T09:57:22.252Z,94949.17
2017-12-15T09:59:49.790Z,94948.06
2017-12-15T10:02:17.456Z,94950.54
2017-12-15T10:04:45.026Z,94947.24
2017-12-15T10:07:12.602Z,94928.94
2017-12-15T10:09:40.207Z,94922.47
2017-12-15T10:12:07.835Z,94923.96
2017-12-15T10:14:35.619Z,94927.75
2017-12-15T10:17:03.577Z,94929.82
2017-12-15T10:19:31.164Z,94931.09
2017-12-15T10:21:58.966Z,94919.98
2017-12-15T10:24:26.538Z,94893.39
2017-12-15T10:26:54.362Z,94905.02
2017-12-15T10:29:22.180Z,94918.39
2017-12-15T10:31:49.791Z,94902.61
2017-12-15T10:34:17.565Z,94901.23
2017-12-15T10:36:45.453Z,94885.83
2017-12-15T10:39:13.029Z,94870.48
2017-12-15T10:41:40.639Z,94867.41
2017-12-15T10:44:08.245Z,94854.80
2017-12-15T10:46:36.604Z,94862.03
2017-12-15T10:49:04.190Z,94861.56
2017-12-15T10:51:31.778Z,94851.57
2017-12-15T10:53:59.497Z,94852.83
2017-12-15T10:56:27.340Z,94825.51
2017-12-15T10:58:55.143Z,94807.56
2017-12-15T11:01:22.734Z,94808.03
2017-12-15T11:03:50.294Z,94819.61
2017-12-15T11:06:18.067Z,94816.88
2017-12-15T11:08:45.690Z,94797.31
2017-12-15T11:11:13.446Z,94792.59
2017-12-15T11:13:41.683Z,94787.88
2017-12-15T11:16:09.501Z,94784.06
2017-12-15T11:18:37.147Z,94778.30
2017-12-15T11:21:04.737Z,94779.64
2017-12-15T11:23:32.555Z,94776.41
2017-12-15T11:26:00.102Z,94768.35
2017-12-15T11:28:27.701Z,94768.87
2017-12-15T11:30:55.338Z,94770.00
2017-12-15T11:33:22.899Z,94780.00
2017-12-15T11:35:50.487Z,94763.99
2017-12-15T11:38:18.060Z,94758.38
2017-12-15T11:40:45.666Z,94752.22
2017-12-15T11:43:13.238Z,94751.92
2017-12-15T11:45:40.862Z,94754.58
2017-12-15T11:48:08.504Z,94760.25
2017-12-15T11:50:36.522Z,94722.38
2017-12-15T11:53:04.175Z,94754.44
2017-12-15T11:55:31.924Z,94760.06
2017-12-15T11:57:59.595Z,94757.42
2017-12-15T12:00:27.266Z,94749.81
2017-12-15T12:02:55.055Z,94742.25
2017-12-15T12:05:22.630Z,94745.77
2017-12-15T12:07:50.237Z,94742.16
2017-12-15T12:10:17.789Z,94744.92
2017-12-15T12:12:45.364Z,94745.05
2017-12-15T12:15:13.012Z,94731.17
2017-12-15T12:17:40.954Z,94719.92
2017-12-15T12:20:09.191Z,94718.52
2017-12-15T12:22:36.800Z,94722.73
2017-12-15T12:25:04.673Z,94740.77
2017-12-15T12:27:32.537Z,94740.97
2017-12-15T12:30:00.103Z,94736.18
2017-12-15T12:32:27.712Z,94744.44
2017-12-15T12:34:55.498Z,94737.95
2017-12-15T12:37:23.082Z,94744.47
2017-12-15T12:39:50.668Z,94738.14
2017-12-15T12:42:18.245Z,94729.72
2017-12-15T12:44:45.784Z,94734.22
2017-12-15T12:47:13.440Z,94733.40
2017-12-15T12:49:40.995Z,94729.03
2017-12-15T12:52:08.757Z,94729.08
2017-12-15T12:54:36.372Z,94727.66
2017-12-15T12:57:04.374Z,94734.95
2017-12-15T12:59:32.006Z,94739.03
2017-12-15T13:01:59.816Z,94735.44
2017-12-15T13:04:27.384Z,94739.82
2017-12-15T13:06:54.961Z,94744.28
2017-12-15T13:09:22.605Z,94743.48
2017-12-15T13:11:50.437Z,94730.01
2017-12-15T13:14:18.234Z,94745.95
2017-12-15T13:16:45.821Z,94739.39
2017-12-15T13:19:13.464Z,94740.13
2017-12-15T13:21:41.144Z,94737.73
2017-12-15T13:24:08.932Z,94727.21
2017-12-15T13:26:36.551Z,94726.62
2017-12-15T13:29:04.106Z,94726.12
2017-12-15T13:31:31.758Z,94733.20
2017-12-15T13:33:59.351Z,94713.98
2017-12-15T13:49:23.919Z,94730.28
2017-12-15T13:51:51.693Z,94725.96
2017-12-15T13:54:19.308Z,94723.24
2017-12-15T13:56:48.414Z,94725.86
2017-12-15T13:59:16.028Z,94726.39
2017-12-15T14:01:43.774Z,94730.42
2017-12-15T14:04:11.366Z,94716.81
2017-12-15T14:06:39.132Z,94727.31
2017-12-15T14:09:07.484Z,94741.44
2017-12-15T14:11:35.055Z,94735.89
2017-12-15T14:14:02.602Z,94730.03
2017-12-15T14:16:30.171Z,94736.52
2017-12-15T14:18:57.729Z,94745.81
2017-12-15T14:21:25.259Z,94747.00
2017-12-15T14:23:52.834Z,94725.04
2017-12-15T14:26:21.234Z,94738.37
2017-12-15T14:28:48.831Z,94751.25
2017-12-15T14:31:16.524Z,94748.55
2017-12-15T14:33:44.117Z,94739.17
2017-12-15T14:36:11.752Z,94745.72
2017-12-15T14:38:39.495Z,94729.84
2017-12-15T14:41:07.155Z,94741.52
2017-12-15T14:43:34.719Z,94744.16
2017-12-15T14:46:02.415Z,94750.59
2017-12-15T14:48:30.212Z,94738.11
2017-12-15T14:50:57.893Z,94745.39
2017-12-15T14:53:25.578Z,94749.02
2017-12-15T14:55:53.165Z,94745.66
2017-12-15T14:58:20.810Z,94735.08
2017-12-15T15:00:48.426Z,94733.91
2017-12-15T15:03:16.047Z,94743.53
2017-12-15T15:05:43.598Z,94766.52
2017-12-15T15:08:11.721Z,94750.41
2017-12-15T15:10:39.313Z,94748.27
2017-12-15T15:13:06.862Z,94725.70
2017-12-15T15:15:34.523Z,94729.92
2017-12-15T15:18:02.828Z,94745.31
2017-12-15T15:20:30.493Z,94753.61
2017-12-15T15:22:58.328Z,94746.58
2017-12-15T15:25:25.953Z,94742.80
2017-12-15T15:27:53.667Z,94717.47
2017-12-15T15:30:22.270Z,94709.30
2017-12-15T15:32:50.048Z,94720.82
2017-12-15T15:35:17.647Z,94708.70
2017-12-15T15:37:45.519Z,94710.51
2017-12-15T15:40:13.325Z,94710.53
2017-12-15T15:42:41.008Z,94711.14
2017-12-15T15:45:08.639Z,94716.77
2017-12-15T15:47:36.271Z,94719.94
2017-12-15T15:50:03.881Z,94701.13
2017-12-15T15:52:31.552Z,94719.09
2017-12-15T15:54:59.950Z,94726.60
2017-12-15T15:57:27.519Z,94711.45
2017-12-15T15:59:55.377Z,94705.86
2017-12-15T16:02:23.213Z,94706.52
2017-12-15T16:04:51.053Z,94703.52
2017-12-15T16:07:19.047Z,94680.27
2017-12-15T16:09:46.701Z,94694.13
2017-12-15T16:12:14.347Z,94683.13
2017-12-15T16:14:41.980Z,94672.73
2017-12-15T16:17:12.484Z,94674.59
2017-12-15T16:19:40.833Z,94664.09
2017-12-15T16:22:08.540Z,94669.30
2017-12-15T16:24:36.367Z,94680.00
2017-12-15T16:27:03.994Z,94683.59
2017-12-15T16:29:32.115Z,94671.86
2017-12-15T16:32:00.037Z,94653.05
2017-12-15T16:34:27.884Z,94672.63
2017-12-15T16:36:55.541Z,94681.70
2017-12-15T16:39:23.171Z,94693.54
2017-12-15T16:41:50.842Z,94695.48
2017-12-15T16:44:18.804Z,94667.59
2017-12-15T16:46:46.557Z,94664.55
2017-12-15T16:49:14.427Z,94671.84
2017-12-15T16:51:42.344Z,94672.86
2017-12-15T16:54:10.290Z,94677.09
2017-12-15T16:56:38.064Z,94651.61
2017-12-15T16:59:05.835Z,94638.84
2017-12-15T17:01:34.304Z,94657.17
2017-12-15T17:04:02.187Z,94662.52
2017-12-15T17:06:30.723Z,94643.61
2017-12-15T17:08:58.709Z,94624.53
2017-12-15T17:14:40.573Z,94643.59
2017-12-15T17:17:08.233Z,94634.33
2017-12-15T17:19:35.829Z,94639.80
2017-12-15T17:22:03.572Z,94645.75
2017-12-15T17:24:31.229Z,94639.89
2017-12-15T17:26:58.957Z,94640.15
2017-12-15T17:29:27.088Z,94636.98
2017-12-15T17:31:54.758Z,94614.48
2017-12-15T17:34:22.572Z,94630.33
2017-12-15T17:36:50.280Z,94633.33
2017-12-15T17:39:18.978Z,94628.23
2017-12-15T17:41:47.378Z,94614.45
2017-12-15T17:44:15.092Z,94614.67
2017-12-15T17:46:43.842Z,94611.31
2017-12-15T17:49:11.694Z,94615.41
2017-12-15T17:51:39.644Z,94596.54
2017-12-15T17:54:07.401Z,94591.11
2017-12-15T17:56:35.130Z,94600.09
2017-12-15T17:59:03.505Z,94603.80
2017-12-15T18:01:31.191Z,94570.96
2017-12-15T18:03:59.339Z,94570.56
2017-12-15T18:06:27.177Z,94593.08
2017-12-15T18:08:54.872Z,94576.01
2017-12-15T18:11:25.316Z,94581.16
2017-12-15T18:13:53.856Z,94582.25
2017-12-15T18:16:21.454Z,94567.72
2017-12-15T18:18:49.834Z,94573.30
2017-12-15T18:21:18.565Z,94554.53
2017-12-15T18:23:47.874Z,94564.84
2017-12-15T18:26:15.513Z,94552.36
2017-12-15T18:28:43.877Z,94541.45
2017-12-15T18:31:11.513Z,94550.40
2017-12-15T18:33:40.353Z,94538.47
2017-12-15T18:36:08.885Z,94527.95
2017-12-15T18:38:36.545Z,94530.08
2017-12-15T18:41:04.176Z,94540.57
2017-12-15T18:43:31.754Z,94533.55
2017-12-15T18:46:20.204Z,94537.88
2017-12-15T18:48:48.569Z,94533.28
2017-12-15T18:51:17.037Z,94518.58
2017-12-15T18:53:44.645Z,94503.51
2017-12-15T18:56:14.921Z,94505.37
2017-12-15T18:58:44.856Z,94506.08
2017-12-15T19:01:16.278Z,94521.23
2017-12-15T19:03:44.160Z,94496.23
2017-12-15T19:06:11.996Z,94458.13
2017-12-15T19:08:40.229Z,94477.55
2017-12-15T19:11:07.958Z,94492.44
2017-12-15T19:13:35.611Z,94478.31
2017-12-15T19:16:04.044Z,94472.02
2017-12-15T19:18:33.607Z,94481.65
2017-12-15T19:21:01.886Z,94437.57
2017-12-15T19:23:30.058Z,94445.57
2017-12-15T19:25:57.644Z,94467.48
2017-12-15T19:28:25.387Z,94472.45
2017-12-15T19:30:53.053Z,94466.54
2017-12-15T19:33:21.671Z,94445.84
2017-12-15T19:35:50.370Z,94467.98
2017-12-15T19:38:18.469Z,94461.88
2017-12-15T19:40:46.061Z,94459.29
2017-12-15T19:43:13.867Z,94457.58
2017-12-15T19:45:41.522Z,94457.50
2017-12-15T19:48:10.030Z,94452.85
2017-12-15T19:50:38.027Z,94439.78
2017-12-15T19:53:05.742Z,94451.13
2017-12-15T19:55:33.358Z,94435.52
2017-12-15T19:58:00.990Z,94441.62
2017-12-15T20:00:29.496Z,94435.94
2017-12-15T20:02:57.383Z,94445.70
2017-12-15T20:05:25.900Z,94426.55
2017-12-15T20:07:59.862Z,94415.24
2017-12-15T20:10:30.603Z,94420.83
2017-12-15T20:13:01.552Z,94411.77
2017-12-15T20:15:30.087Z,94412.45
2017-12-15T20:17:59.790Z,94428.34
2017-12-15T20:20:30.383Z,94426.12
2017-12-15T20:23:25.554Z,94426.54
2017-12-15T20:25:53.593Z,94421.56
2017-12-15T20:31:58.884Z,94437.71
2017-12-15T20:34:33.274Z,94448.69
2017-12-15T20:37:03.465Z,94418.84
2017-12-15T20:39:32.828Z,94445.23
2017-12-15T20:42:00.682Z,94448.30
2017-12-15T20:44:32.121Z,94440.94
2017-12-15T20:47:01.757Z,94448.29
2017-12-15T20:49:29.769Z,94417.92
2017-12-15T20:51:58.954Z,94454.09
2017-12-15T20:54:28.241Z,94449.27
2017-12-15T20:56:57.253Z,94405.30
2017-12-15T20:59:25.334Z,94444.55
2017-12-15T21:01:53.847Z,94411.17
2017-12-15T21:04:23.280Z,94436.67
2017-12-15T21:06:53.141Z,94403.09
2017-12-15T21:09:21.770Z,94433.39
2017-12-15T21:11:50.563Z,94418.36
2017-12-15T21:14:18.603Z,94415.41
2017-12-15T21:16:47.844Z,94385.66
2017-12-15T21:19:15.444Z,94426.91
2017-12-15T21:21:43.193Z,94436.72
2017-12-15T21:24:10.792Z,94402.06
2017-12-15T21:26:38.348Z,94415.67
2017-12-15T21:29:06.137Z,94432.33
2017-12-15T21:31:33.918Z,94416.08
2017-12-15T21:36:55.317Z,94429.41
2017-12-15T21:39:23.203Z,94407.50
2017-12-15T21:41:50.966Z,94388.84
2017-12-15T21:44:18.540Z,94398.84
2017-12-15T21:46:46.206Z,94387.09
2017-12-15T21:49:13.881Z,94403.53
2017-12-15T21:51:41.587Z,94375.58
2017-12-15T21:58:44.363Z,94387.16
2017-12-15T22:01:12.230Z,94358.45
2017-12-15T22:03:40.031Z,94339.07
2017-12-15T22:06:07.915Z,94346.27
2017-12-15T22:08:35.784Z,94363.80
2017-12-15T22:11:03.376Z,94363.33
2017-12-15T22:13:30.959Z,94345.01
2017-12-15T22:15:59.717Z,94345.95
2017-12-15T22:18:27.627Z,94357.80
2017-12-15T22:20:55.524Z,94360.23
2017-12-15T22:23:23.890Z,94353.52
2017-12-15T22:25:51.520Z,94359.70
2017-12-15T22:28:19.553Z,94358.72
2017-12-15T22:30:47.171Z,94328.66
2017-12-15T22:33:14.987Z,94329.35
2017-12-15T22:35:42.532Z,94341.19
2017-12-15T22:38:10.234Z,94318.98
2017-12-15T22:40:37.990Z,94316.02
2017-12-15T22:43:05.554Z,94330.91
2017-12-15T22:45:33.146Z,94329.23
2017-12-15T22:48:01.233Z,94316.72
2017-12-15T22:50:29.214Z,94296.48
2017-12-15T22:52:56.842Z,94292.05
2017-12-15T22:55:24.437Z,94294.02
2017-12-15T22:57:52.063Z,94271.70
2017-12-15T23:00:19.698Z,94244.80
2017-12-15T23:02:47.525Z,94240.22
2017-12-15T23:05:16.241Z,94206.59
2017-12-15T23:07:43.935Z,94210.56
2017-12-15T23:10:11.703Z,94259.42
2017-12-15T23:12:39.373Z,94228.30
2017-12-15T23:15:06.951Z,94218.25
2017-12-15T23:17:34.540Z,94236.27
2017-12-15T23:20:02.266Z,94224.69
2017-12-15T23:22:30.221Z,94235.91
2017-12-15T23:24:58.115Z,94224.65
2017-12-15T23:27:25.886Z,94205.63
2017-12-15T23:29:53.593Z,94225.32
2017-12-15T23:32:21.861Z,94222.05
2017-12-15T23:34:49.467Z,94214.64
2017-12-15T23:37:17.033Z,94204.34
2017-12-15T23:39:44.909Z,94181.47
2017-12-15T23:42:12.729Z,94211.44
2017-12-15T23:44:40.292Z,94189.22
2017-12-15T23:47:07.939Z,94183.90
2017-12-15T23:49:35.638Z,94166.53
2017-12-15T23:52:03.254Z,94189.98
2017-12-15T23:54:42.732Z,94192.70
2017-12-15T23:57:10.547Z,94193.05
2017-12-15T23:59:40.102Z,94205.95
